Time;durP1;ratioP1;P1;durP2;ratioP2;P2;SDS_P1;SDS_P2;PMS_P1;PMS_P2;Temp;Humidity;BMP_temperature;BMP_pressure;BME280_temperature;BME280_humidity;BME280_pressure;Samples;Min_cycle;Max_cycle;Signal;HPM_P1;HPM_P2
2024/04/21 00:00:02;;;;;;;4.97;4.57;;;23.50;52.40;;;;;;5414575;26;20216;-68
2024/04/21 00:02:28;;;;;;;5.90;4.50;;;23.50;52.40;;;;;;5414851;26;20239;-66
2024/04/21 00:04:54;;;;;;;5.03;4.63;;;23.50;52.30;;;;;;5414965;26;20506;-68
2024/04/21 00:07:19;;;;;;;4.97;4.57;;;23.50;52.40;;;;;;5414606;26;20220;-68
2024/04/21 00:09:45;;;;;;;4.80;4.40;;;23.50;52.40;;;;;;5414309;26;20232;-68
2024/04/21 00:12:10;;;;;;;4.87;4.37;;;23.50;52.40;;;;;;5414284;26;20298;-68
2024/04/21 00:14:36;;;;;;;4.80;4.40;;;23.50;52.40;;;;;;5414330;26;20216;-68
2024/04/21 00:17:02;;;;;;;5.00;4.60;;;23.50;52.40;;;;;;5414330;26;20228;-67
2024/04/21 00:19:27;;;;;;;5.17;4.77;;;23.40;52.30;;;;;;5414345;26;20288;-67
2024/04/21 00:21:53;;;;;;;5.10;4.57;;;23.50;52.40;;;;;;5414325;26;20266;-68
2024/04/21 00:24:18;;;;;;;5.20;4.80;;;23.50;52.40;;;;;;5414293;26;20334;-68
2024/04/21 00:26:44;;;;;;;5.00;4.60;;;23.50;52.40;;;;;;5414189;26;20220;-68
2024/04/21 00:29:09;;;;;;;4.57;4.17;;;23.50;52.40;;;;;;5413945;26;20240;-68
2024/04/21 00:31:35;;;;;;;4.50;4.10;;;23.40;52.30;;;;;;5414393;26;20302;-68
2024/04/21 00:34:01;;;;;;;4.70;4.30;;;23.40;52.30;;;;;;5414190;26;20898;-69
2024/04/21 00:36:27;;;;;;;4.67;4.27;;;23.40;52.30;;;;;;5414302;26;20220;-69
2024/04/21 00:38:53;;;;;;;5.27;4.87;;;23.40;52.30;;;;;;5414180;26;20576;-67
2024/04/21 00:41:18;;;;;;;5.00;4.50;;;23.40;52.30;;;;;;5414260;26;20224;-68
2024/04/21 00:43:44;;;;;;;4.93;4.53;;;23.40;52.30;;;;;;5414003;26;20266;-66
2024/04/21 00:46:09;;;;;;;5.20;4.70;;;23.40;52.30;;;;;;5413832;26;20232;-68
2024/04/21 00:48:36;;;;;;;5.40;5.00;;;23.40;52.30;;;;;;5413747;26;20623;-68
2024/04/21 00:51:03;;;;;;;4.70;4.30;;;23.40;52.30;;;;;;5413750;26;20220;-69
2024/04/21 00:53:29;;;;;;;4.40;4.00;;;23.40;52.30;;;;;;5413581;26;21191;-68
2024/04/21 00:55:57;;;;;;;4.80;4.40;;;23.40;52.30;;;;;;5413524;26;20438;-68
2024/04/21 00:58:23;;;;;;;4.63;4.23;;;23.40;52.30;;;;;;5413620;26;20773;-68
2024/04/21 01:00:49;;;;;;;5.00;4.50;;;23.40;52.30;;;;;;5413717;26;20442;-69
2024/04/21 01:03:15;;;;;;;5.20;4.70;;;23.40;52.30;;;;;;5382257;26;20454;-69
2024/04/21 01:05:40;;;;;;;4.77;4.37;;;23.40;52.30;;;;;;5413807;26;20280;-66
2024/04/21 01:08:07;;;;;;;4.77;4.37;;;23.40;52.30;;;;;;5413245;26;20583;-68
2024/04/21 01:10:33;;;;;;;5.33;4.83;;;23.40;52.30;;;;;;5413374;26;20220;-67
2024/04/21 01:12:58;;;;;;;4.47;3.80;;;23.40;52.30;;;;;;5413269;26;20506;-68
2024/04/21 01:15:24;;;;;;;4.33;4.00;;;23.40;52.40;;;;;;5413329;26;20232;-68
2024/04/21 01:17:49;;;;;;;4.17;3.87;;;23.40;52.30;;;;;;5413507;26;20349;-67
2024/04/21 01:20:15;;;;;;;4.30;3.90;;;23.40;52.30;;;;;;5413183;26;20274;-67
2024/04/21 01:22:46;;;;;;;5.30;4.80;;;23.40;52.30;;;;;;5413253;26;20612;-68
2024/04/21 01:25:12;;;;;;;4.73;4.23;;;23.40;52.30;;;;;;5414851;26;20636;-69
2024/04/21 01:27:38;;;;;;;5.37;4.60;;;23.40;52.40;;;;;;5417359;26;20544;-69
2024/04/21 01:30:04;;;;;;;4.23;3.93;;;23.40;52.30;;;;;;5417410;26;20442;-69
2024/04/21 01:32:29;;;;;;;4.70;4.30;;;23.40;52.40;;;;;;5416999;26;20326;-69
2024/04/21 01:34:55;;;;;;;4.73;4.30;;;23.40;52.30;;;;;;5417269;26;20450;-70
2024/04/21 01:37:20;;;;;;;4.33;3.93;;;23.40;52.30;;;;;;5416944;26;20228;-69
2024/04/21 01:39:46;;;;;;;4.60;4.30;;;23.40;52.30;;;;;;5417073;26;20224;-67
2024/04/21 01:42:11;;;;;;;4.20;3.80;;;23.40;52.30;;;;;;5417341;26;20220;-69
2024/04/21 01:44:37;;;;;;;4.13;3.73;;;23.40;52.30;;;;;;5417333;26;20220;-67
2024/04/21 01:47:03;;;;;;;4.90;4.50;;;23.40;52.30;;;;;;5417189;26;20695;-69
2024/04/21 01:49:28;;;;;;;4.60;4.20;;;23.30;52.30;;;;;;5416858;26;20744;-68
2024/04/21 01:51:54;;;;;;;4.47;4.07;;;23.30;52.30;;;;;;5417083;26;20213;-68
2024/04/21 01:54:20;;;;;;;4.07;3.77;;;23.40;52.40;;;;;;5417334;26;20613;-68
2024/04/21 01:56:46;;;;;;;4.37;4.03;;;23.40;52.40;;;;;;5417151;26;20329;-69
2024/04/21 01:59:12;;;;;;;4.30;3.90;;;23.40;52.40;;;;;;5416754;26;20761;-68
2024/04/21 02:01:37;;;;;;;5.03;4.37;;;23.40;52.40;;;;;;5416859;26;20265;-69
2024/04/21 02:04:03;;;;;;;4.30;4.00;;;23.40;52.40;;;;;;5416761;26;20333;-68
2024/04/21 02:06:29;;;;;;;4.13;3.73;;;23.30;52.30;;;;;;5416988;26;20329;-68
2024/04/21 02:08:54;;;;;;;4.13;3.83;;;23.40;52.40;;;;;;5416715;26;20236;-67
2024/04/21 02:11:20;;;;;;;3.70;3.40;;;23.30;52.20;;;;;;5385437;26;20224;-69
2024/04/21 02:13:46;;;;;;;3.87;3.57;;;23.40;52.30;;;;;;5416894;26;20228;-69
2024/04/21 02:16:11;;;;;;;4.03;3.73;;;23.40;52.40;;;;;;5416562;26;20719;-69
2024/04/21 02:18:37;;;;;;;3.90;3.60;;;23.40;52.30;;;;;;5416356;26;20232;-68
2024/04/21 02:21:03;;;;;;;4.73;4.33;;;23.30;52.30;;;;;;5416871;26;20224;-68
2024/04/21 02:23:28;;;;;;;4.17;3.77;;;23.30;52.20;;;;;;5416493;26;20271;-68
2024/04/21 02:25:58;;;;;;;3.90;3.60;;;23.30;52.30;;;;;;5416941;26;20259;-68
2024/04/21 02:28:24;;;;;;;4.10;3.77;;;23.40;52.30;;;;;;5416469;26;20746;-68
2024/04/21 02:30:49;;;;;;;4.13;3.83;;;23.30;52.30;;;;;;5416602;26;20506;-68
2024/04/21 02:33:15;;;;;;;4.03;3.73;;;23.40;52.90;;;;;;5416190;26;20224;-69
2024/04/21 02:35:40;;;;;;;4.13;3.80;;;23.30;52.30;;;;;;5415851;26;20612;-69
2024/04/21 02:38:07;;;;;;;3.80;3.50;;;23.30;52.30;;;;;;5415140;26;20279;-68
2024/04/21 02:40:32;;;;;;;4.00;3.60;;;23.30;52.30;;;;;;5416383;26;20280;-69
2024/04/21 02:42:58;;;;;;;3.83;3.53;;;23.30;52.20;;;;;;5416127;26;20443;-68
2024/04/21 02:45:23;;;;;;;3.50;3.20;;;23.30;52.30;;;;;;5416363;26;20232;-68
2024/04/21 02:47:49;;;;;;;3.23;2.97;;;23.30;52.30;;;;;;5415939;26;20821;-69
2024/04/21 02:50:15;;;;;;;4.10;3.70;;;23.30;52.30;;;;;;5415813;26;20236;-68
2024/04/21 02:52:40;;;;;;;3.90;3.50;;;23.30;52.20;;;;;;5416282;26;20228;-69
2024/04/21 02:55:06;;;;;;;4.03;3.73;;;23.30;52.20;;;;;;5415945;26;20766;-69
2024/04/21 02:57:33;;;;;;;3.77;3.47;;;23.30;52.30;;;;;;5384377;26;20232;-69
2024/04/21 02:59:59;;;;;;;3.53;3.23;;;23.30;52.20;;;;;;5415919;26;20301;-68
2024/04/21 03:02:25;;;;;;;3.33;3.13;;;23.30;52.20;;;;;;5384566;26;20525;-69
2024/04/21 03:04:50;;;;;;;3.30;3.10;;;23.30;52.30;;;;;;5416031;26;20221;-69
2024/04/21 03:07:17;;;;;;;3.63;3.33;;;23.30;52.20;;;;;;5416117;26;20223;-68
2024/04/21 03:09:43;;;;;;;3.40;3.10;;;23.30;52.20;;;;;;5415738;26;20660;-69
2024/04/21 03:12:09;;;;;;;3.50;3.20;;;23.30;52.30;;;;;;5415897;26;20522;-69
2024/04/21 03:14:35;;;;;;;3.60;3.27;;;23.30;52.20;;;;;;5415903;26;20333;-69
2024/04/21 03:17:02;;;;;;;3.83;3.53;;;23.30;52.20;;;;;;5416227;26;20454;-69
2024/04/21 03:19:28;;;;;;;3.53;3.23;;;23.30;52.20;;;;;;5415951;26;20275;-69
2024/04/21 03:21:53;;;;;;;3.80;3.50;;;23.30;52.80;;;;;;5415991;26;20442;-68
2024/04/21 03:24:19;;;;;;;3.60;3.30;;;23.30;52.20;;;;;;5416007;26;20539;-69
2024/04/21 03:26:44;;;;;;;3.20;2.90;;;23.30;52.20;;;;;;5415577;26;20271;-68
2024/04/21 03:29:10;;;;;;;3.30;3.07;;;23.30;52.20;;;;;;5415745;26;20239;-69
2024/04/21 03:31:36;;;;;;;3.80;3.50;;;23.30;52.20;;;;;;5415480;26;20269;-68
2024/04/21 03:34:01;;;;;;;3.67;3.37;;;23.30;52.20;;;;;;5415672;26;20224;-69
2024/04/21 03:36:27;;;;;;;3.90;3.60;;;23.30;52.20;;;;;;5415430;26;20224;-69
2024/04/21 03:38:52;;;;;;;3.10;2.90;;;23.30;52.20;;;;;;5415361;26;20278;-69
2024/04/21 03:41:18;;;;;;;3.53;3.23;;;23.30;52.20;;;;;;5415557;26;20232;-68
2024/04/21 03:43:46;;;;;;;3.63;3.33;;;23.30;52.20;;;;;;5415761;26;20232;-67
2024/04/21 03:46:12;;;;;;;3.17;2.87;;;23.30;52.20;;;;;;5415078;26;20228;-69
2024/04/21 03:48:38;;;;;;;3.60;3.30;;;23.30;52.20;;;;;;5414594;26;20596;-69
2024/04/21 03:51:04;;;;;;;3.17;2.87;;;23.30;52.20;;;;;;5415215;26;20574;-68
2024/04/21 03:53:29;;;;;;;3.80;3.23;;;23.30;52.20;;;;;;5415367;26;20450;-68
2024/04/21 03:55:55;;;;;;;2.97;2.77;;;23.30;52.20;;;;;;5415206;26;20700;-68
2024/04/21 03:58:20;;;;;;;3.63;3.33;;;23.30;52.20;;;;;;5414947;26;20308;-67
2024/04/21 04:00:46;;;;;;;3.20;3.00;;;23.30;52.20;;;;;;5415163;26;20229;-68
2024/04/21 04:03:12;;;;;;;3.37;3.10;;;23.30;52.20;;;;;;5415434;26;20283;-68
2024/04/21 04:05:37;;;;;;;3.20;2.90;;;23.30;52.20;;;;;;5415002;26;20262;-68
2024/04/21 04:08:03;;;;;;;2.80;2.60;;;23.30;52.20;;;;;;5414738;26;20236;-68
2024/04/21 04:10:29;;;;;;;3.10;2.80;;;23.30;52.20;;;;;;5415056;26;20236;-68
2024/04/21 04:12:55;;;;;;;3.60;3.30;;;23.30;52.70;;;;;;5415316;26;21028;-68
2024/04/21 04:15:20;;;;;;;3.50;3.27;;;23.30;52.20;;;;;;5414894;26;20232;-69
2024/04/21 04:17:46;;;;;;;3.20;2.90;;;23.30;52.20;;;;;;5415273;26;20279;-69
2024/04/21 04:20:11;;;;;;;3.47;3.20;;;23.30;52.20;;;;;;5414556;26;20259;-68
2024/04/21 04:22:37;;;;;;;3.00;2.80;;;23.30;52.20;;;;;;5383668;26;20228;-68
2024/04/21 04:25:05;;;;;;;3.40;3.10;;;23.30;52.20;;;;;;5415331;26;20220;-68
2024/04/21 04:27:31;;;;;;;3.53;3.23;;;23.30;52.20;;;;;;5414608;26;20229;-68
2024/04/21 04:29:57;;;;;;;3.37;3.07;;;23.30;52.20;;;;;;5414699;26;20493;-69
2024/04/21 04:32:23;;;;;;;3.33;3.03;;;23.30;52.20;;;;;;5414697;26;20446;-67
2024/04/21 04:34:49;;;;;;;3.23;3.00;;;23.30;52.20;;;;;;5414961;26;20719;-68
2024/04/21 04:37:14;;;;;;;3.40;3.07;;;23.30;52.20;;;;;;5414889;26;20232;-69
2024/04/21 04:39:40;;;;;;;3.23;2.93;;;23.30;52.20;;;;;;5414791;26;20335;-69
2024/04/21 04:42:06;;;;;;;2.83;2.63;;;23.30;52.20;;;;;;5414413;26;20228;-68
2024/04/21 04:44:32;;;;;;;3.57;3.27;;;23.20;52.10;;;;;;5414688;26;20228;-66
2024/04/21 04:46:57;;;;;;;2.67;2.47;;;23.20;52.10;;;;;;5414631;26;20450;-69
2024/04/21 04:49:23;;;;;;;2.77;2.57;;;23.20;52.70;;;;;;5414416;26;20244;-67
2024/04/21 04:51:49;;;;;;;2.93;2.67;;;23.20;52.10;;;;;;5414519;26;20278;-69
2024/04/21 04:54:14;;;;;;;3.17;2.97;;;23.20;52.10;;;;;;5414313;26;20279;-69
2024/04/21 04:56:40;;;;;;;3.20;2.90;;;23.20;52.20;;;;;;5414197;26;20861;-68
2024/04/21 04:59:06;;;;;;;3.20;2.90;;;23.20;52.20;;;;;;5414401;26;20240;-68
2024/04/21 05:01:32;;;;;;;3.13;2.83;;;23.20;52.20;;;;;;5418139;26;20228;-68
2024/04/21 05:03:57;;;;;;;3.07;2.87;;;23.20;52.20;;;;;;5418041;26;20474;-68
2024/04/21 05:06:23;;;;;;;2.90;2.70;;;23.20;52.20;;;;;;5418069;26;20220;-68
2024/04/21 05:08:49;;;;;;;2.90;2.70;;;23.20;52.20;;;;;;5417687;26;20322;-67
2024/04/21 05:11:14;;;;;;;3.07;2.87;;;23.20;52.30;;;;;;5418172;26;20673;-67
2024/04/21 05:13:40;;;;;;;2.67;2.47;;;23.20;52.30;;;;;;5417724;26;20263;-68
2024/04/21 05:16:05;;;;;;;2.73;2.53;;;23.20;52.30;;;;;;5417867;26;20221;-68
2024/04/21 05:18:31;;;;;;;2.90;2.70;;;23.20;52.30;;;;;;5417861;26;20344;-68
2024/04/21 05:20:57;;;;;;;3.17;2.83;;;23.20;52.30;;;;;;5417932;26;20730;-67
2024/04/21 05:23:22;;;;;;;4.80;2.70;;;23.20;52.20;;;;;;5418072;26;20228;-67
2024/04/21 05:25:50;;;;;;;2.87;2.67;;;23.20;52.20;;;;;;5417634;26;20621;-68
2024/04/21 05:28:15;;;;;;;2.87;2.67;;;23.30;52.30;;;;;;5418047;26;20248;-67
2024/04/21 05:30:41;;;;;;;2.80;2.50;;;23.30;52.30;;;;;;5418080;26;20514;-68
2024/04/21 05:33:06;;;;;;;2.97;2.77;;;23.30;52.30;;;;;;5417923;26;20310;-68
2024/04/21 05:35:32;;;;;;;3.03;2.73;;;23.30;52.20;;;;;;5417909;26;20266;-68
2024/04/21 05:37:58;;;;;;;3.23;2.93;;;23.30;52.30;;;;;;5417688;26;20773;-67
2024/04/21 05:40:24;;;;;;;2.73;2.53;;;23.30;52.20;;;;;;5417664;26;20706;-67
2024/04/21 05:42:49;;;;;;;3.10;2.50;;;23.30;52.20;;;;;;5418057;26;20556;-68
2024/04/21 05:45:15;;;;;;;3.03;2.80;;;23.30;52.20;;;;;;5417681;26;20225;-68
2024/04/21 05:47:41;;;;;;;2.60;2.40;;;23.30;52.80;;;;;;5418118;26;20233;-68
2024/04/21 05:50:07;;;;;;;3.20;2.90;;;23.30;52.20;;;;;;5417683;26;20766;-68
2024/04/21 05:52:33;;;;;;;2.40;2.20;;;23.30;52.20;;;;;;5417855;26;20270;-68
2024/04/21 05:54:59;;;;;;;2.10;2.00;;;23.30;52.20;;;;;;5418055;26;20515;-67
2024/04/21 05:57:25;;;;;;;2.90;2.70;;;23.30;52.20;;;;;;5417580;26;20960;-68
2024/04/21 05:59:50;;;;;;;3.23;2.93;;;23.30;52.20;;;;;;5417632;26;20502;-68
2024/04/21 06:02:16;;;;;;;2.77;2.57;;;23.30;52.20;;;;;;5417485;26;20220;-68
2024/04/21 06:04:42;;;;;;;2.27;2.07;;;23.30;52.20;;;;;;5417725;26;20309;-68
2024/04/21 06:07:07;;;;;;;2.57;2.37;;;23.40;52.20;;;;;;5417040;26;20220;-68
2024/04/21 06:09:34;;;;;;;2.60;2.40;;;23.40;52.20;;;;;;5416947;26;20279;-67
2024/04/21 06:12:01;;;;;;;2.43;2.23;;;23.30;52.20;;;;;;5417032;26;20329;-68
2024/04/21 06:14:27;;;;;;;3.00;2.80;;;23.30;52.20;;;;;;5416746;26;20450;-66
2024/04/21 06:16:53;;;;;;;2.50;2.30;;;23.30;52.10;;;;;;5416958;26;20446;-66
2024/04/21 06:19:20;;;;;;;2.63;2.43;;;23.30;52.20;;;;;;5417221;26;21040;-68
2024/04/21 06:21:45;;;;;;;2.27;2.07;;;23.30;52.10;;;;;;5416973;26;20730;-67
2024/04/21 06:24:11;;;;;;;2.60;2.40;;;23.30;52.10;;;;;;5416681;26;20454;-68
2024/04/21 06:26:36;;;;;;;2.70;2.50;;;23.40;52.20;;;;;;5416609;26;20224;-68
2024/04/21 06:29:03;;;;;;;2.37;2.17;;;23.30;52.10;;;;;;5417133;26;20241;-67
2024/04/21 06:31:28;;;;;;;2.43;2.10;;;23.30;52.20;;;;;;5417005;26;20319;-68
2024/04/21 06:33:54;;;;;;;2.53;2.33;;;23.40;52.20;;;;;;5416401;26;20454;-68
2024/04/21 06:36:20;;;;;;;2.70;2.50;;;23.40;52.20;;;;;;5416405;26;20220;-68
2024/04/21 06:38:45;;;;;;;2.70;2.50;;;23.40;52.20;;;;;;5416183;26;20286;-69
2024/04/21 06:41:12;;;;;;;3.17;2.87;;;23.40;52.20;;;;;;5384591;26;20247;-68
2024/04/21 06:43:37;;;;;;;2.63;2.43;;;23.40;52.30;;;;;;5416190;26;20217;-68
2024/04/21 06:46:03;;;;;;;2.93;2.73;;;23.30;52.20;;;;;;5436876;26;20975;-68
2024/04/21 06:48:29;;;;;;;2.37;2.00;;;23.40;52.20;;;;;;5451883;26;20231;-68
2024/04/21 06:50:54;;;;;;;3.23;2.60;;;23.40;52.30;;;;;;5451997;26;20569;-68
2024/04/21 06:53:20;;;;;;;2.47;2.27;;;23.40;52.20;;;;;;5452097;26;20212;-68
2024/04/21 06:55:45;;;;;;;2.53;2.30;;;23.40;52.20;;;;;;5452071;26;20227;-67
2024/04/21 06:58:12;;;;;;;5.50;2.50;;;23.40;52.20;;;;;;5452133;26;20235;-68
2024/04/21 07:00:39;;;;;;;2.93;2.40;;;23.40;52.20;;;;;;5450040;26;20215;-68
2024/04/21 07:03:05;;;;;;;4.13;2.50;;;23.40;52.20;;;;;;5451717;26;20499;-69
2024/04/21 07:05:31;;;;;;;2.60;2.33;;;23.40;52.20;;;;;;5450372;26;20461;-68
2024/04/21 07:07:57;;;;;;;3.73;2.77;;;23.40;52.20;;;;;;5450531;26;20277;-68
2024/04/21 07:10:22;;;;;;;2.73;2.53;;;23.40;52.20;;;;;;5451960;26;20797;-66
2024/04/21 07:12:48;;;;;;;4.00;3.27;;;23.40;52.10;;;;;;5451579;26;20440;-66
2024/04/21 07:15:14;;;;;;;3.43;2.90;;;23.40;52.10;;;;;;5418770;26;20263;-67
2024/04/21 07:17:39;;;;;;;3.57;2.90;;;23.40;52.10;;;;;;5418442;26;20216;-67
2024/04/21 07:20:05;;;;;;;4.33;3.93;;;23.40;52.00;;;;;;5451564;26;20269;-68
2024/04/21 07:22:31;;;;;;;3.90;3.50;;;23.40;52.00;;;;;;5450731;26;20567;-68
2024/04/21 07:24:57;;;;;;;5.00;4.33;;;23.40;52.00;;;;;;5451415;26;20445;-68
2024/04/21 07:27:22;;;;;;;4.57;3.90;;;23.40;52.00;;;;;;5451195;26;20279;-68
2024/04/21 07:29:48;;;;;;;4.87;4.37;;;23.40;52.00;;;;;;5451685;26;20219;-68
2024/04/21 07:32:13;;;;;;;4.90;4.17;;;23.40;51.90;;;;;;5451488;26;20215;-69
2024/04/21 07:34:39;;;;;;;4.80;4.40;;;23.40;51.80;;;;;;5451390;26;20211;-68
2024/04/21 07:37:04;;;;;;;4.43;4.03;;;23.40;51.80;;;;;;5451169;26;20223;-68
2024/04/21 07:39:30;;;;;;;6.20;4.30;;;23.40;51.80;;;;;;5451672;26;20265;-68
2024/04/21 07:41:56;;;;;;;4.77;4.13;;;23.40;51.70;;;;;;5451472;26;20215;-68
2024/04/21 07:44:21;;;;;;;4.10;3.50;;;23.40;51.70;;;;;;5451412;26;20296;-68
2024/04/21 07:46:47;;;;;;;5.37;4.10;;;23.40;51.70;;;;;;5451531;26;20713;-66
2024/04/21 07:49:13;;;;;;;4.93;4.23;;;23.40;51.70;;;;;;5451140;26;20614;-68
2024/04/21 07:51:38;;;;;;;4.47;4.07;;;23.40;51.60;;;;;;5451281;26;20219;-66
2024/04/21 07:54:05;;;;;;;5.10;4.00;;;23.40;51.60;;;;;;5451313;26;20215;-68
2024/04/21 07:56:31;;;;;;;4.50;3.80;;;23.40;51.60;;;;;;5450999;26;20219;-67
2024/04/21 07:58:56;;;;;;;5.00;3.40;;;23.40;51.70;;;;;;5449870;26;20574;-66
2024/04/21 08:01:22;;;;;;;4.70;3.77;;;23.40;51.70;;;;;;5418441;26;20271;-67
2024/04/21 08:03:48;;;;;;;4.37;3.17;;;23.40;51.60;;;;;;5450181;26;20686;-67
2024/04/21 08:06:13;;;;;;;4.77;4.27;;;23.40;51.60;;;;;;5450004;26;20223;-67
2024/04/21 08:08:39;;;;;;;5.27;4.13;;;23.40;51.60;;;;;;5450039;26;20760;-67
2024/04/21 08:11:05;;;;;;;5.50;4.17;;;23.40;51.70;;;;;;5449592;26;20215;-68
2024/04/21 08:13:30;;;;;;;3.67;3.20;;;23.40;51.70;;;;;;5449568;26;20215;-66
2024/04/21 08:15:59;;;;;;;4.33;3.40;;;23.40;51.60;;;;;;5450123;26;20269;-67
2024/04/21 08:18:25;;;;;;;5.00;4.27;;;23.40;51.70;;;;;;5449832;26;20278;-67
2024/04/21 08:20:50;;;;;;;3.97;3.37;;;23.40;51.70;;;;;;5449818;26;20460;-67
2024/04/21 08:23:16;;;;;;;4.47;3.40;;;23.40;51.60;;;;;;5449960;26;20599;-67
2024/04/21 08:25:44;;;;;;;5.33;3.23;;;23.40;51.60;;;;;;5450546;26;20328;-67
2024/04/21 08:28:10;;;;;;;3.57;2.77;;;23.40;51.60;;;;;;5450245;26;20476;-69
2024/04/21 08:30:36;;;;;;;3.70;3.30;;;23.40;51.60;;;;;;5450534;26;20524;-68
2024/04/21 08:33:01;;;;;;;4.50;3.30;;;23.40;51.60;;;;;;5450619;26;20452;-68
2024/04/21 08:35:27;;;;;;;3.30;2.87;;;23.40;51.60;;;;;;5452425;26;20222;-67
2024/04/21 08:37:53;;;;;;;6.33;3.90;;;23.40;51.50;;;;;;5454017;26;20239;-68
2024/04/21 08:40:19;;;;;;;4.30;3.57;;;23.40;51.60;;;;;;5453998;26;20269;-68
2024/04/21 08:42:45;;;;;;;3.83;3.50;;;23.40;51.50;;;;;;5453949;26;20231;-68
2024/04/21 08:45:11;;;;;;;3.20;2.90;;;23.40;51.50;;;;;;5453896;26;20524;-68
2024/04/21 08:47:38;;;;;;;4.17;3.07;;;23.40;51.50;;;;;;5453832;26;20896;-68
2024/04/21 08:50:05;;;;;;;3.20;2.90;;;23.40;51.50;;;;;;5454150;26;20273;-68
2024/04/21 08:52:32;;;;;;;4.63;2.83;;;23.40;51.50;;;;;;5453944;26;20632;-68
2024/04/21 08:54:59;;;;;;;4.80;2.73;;;23.40;51.50;;;;;;5454221;26;20546;-69
2024/04/21 08:57:25;;;;;;;4.10;3.00;;;23.40;51.50;;;;;;5454244;26;20500;-69
2024/04/21 08:59:57;;;;;;;3.63;2.80;;;23.40;51.30;;;;;;5453999;26;20456;-69
2024/04/21 09:02:25;;;;;;;3.13;2.50;;;23.40;51.20;;;;;;5454010;26;20440;-69
2024/04/21 09:04:52;;;;;;;4.23;2.80;;;23.40;51.20;;;;;;5452885;26;20448;-69
2024/04/21 09:07:19;;;;;;;3.17;2.87;;;23.40;51.30;;;;;;5452852;26;20449;-68
2024/04/21 09:09:45;;;;;;;3.00;2.40;;;23.40;51.30;;;;;;5452600;26;20461;-69
2024/04/21 09:12:14;;;;;;;4.60;2.73;;;23.40;51.20;;;;;;5452638;26;20499;-69
2024/04/21 09:14:45;;;;;;;2.63;2.27;;;23.40;51.30;;;;;;5452647;26;20523;-70
2024/04/21 09:17:11;;;;;;;4.10;2.70;;;23.40;51.30;;;;;;5452679;26;20448;-70
2024/04/21 09:19:36;;;;;;;3.60;2.53;;;23.30;51.30;;;;;;5452276;26;20472;-71
2024/04/21 09:22:02;;;;;;;3.07;2.13;;;23.40;51.40;;;;;;5452202;26;20540;-70
2024/04/21 09:24:28;;;;;;;2.63;2.10;;;23.30;51.30;;;;;;5450321;26;20231;-70
2024/04/21 09:26:53;;;;;;;3.07;2.57;;;23.30;51.10;;;;;;5450835;26;20223;-68
2024/04/21 09:29:19;;;;;;;2.33;2.00;;;23.30;51.10;;;;;;5452337;26;20235;-71
2024/04/21 09:31:45;;;;;;;2.23;2.03;;;23.30;51.20;;;;;;5452278;26;20327;-71
2024/04/21 09:34:11;;;;;;;3.03;2.33;;;23.30;51.30;;;;;;5452701;26;20211;-74
2024/04/21 09:36:39;;;;;;;5.70;2.00;;;23.30;51.30;;;;;;5452457;26;20283;-69
2024/04/21 09:39:09;;;;;;;2.90;2.23;;;23.30;51.40;;;;;;5451966;26;20239;-70
2024/04/21 09:41:37;;;;;;;3.60;2.97;;;23.30;51.40;;;;;;5451776;26;20492;-69
2024/04/21 09:44:03;;;;;;;3.23;2.17;;;23.30;51.50;;;;;;5452073;26;20513;-72
2024/04/21 09:46:30;;;;;;;2.77;2.23;;;23.30;51.50;;;;;;5451492;26;20505;-72
2024/04/21 09:48:56;;;;;;;2.80;2.10;;;23.30;51.60;;;;;;5410650;26;1080828;-70
2024/04/21 09:51:23;;;;;;;3.47;2.20;;;23.30;51.60;;;;;;5451615;26;20702;-73
2024/04/21 09:53:50;;;;;;;2.73;2.03;;;23.30;51.60;;;;;;5451353;26;20235;-72
2024/04/21 09:56:20;;;;;;;6.03;2.10;;;23.30;51.60;;;;;;5419409;26;21018;-72
2024/04/21 09:58:52;;;;;;;3.80;2.20;;;23.30;52.20;;;;;;5451438;26;21074;-72
2024/04/21 10:01:31;;;;;;;4.77;2.37;;;23.30;51.70;;;;;;5451800;26;20813;-72
2024/04/21 10:04:01;;;;;;;3.60;2.30;;;23.40;51.80;;;;;;5451734;26;20531;-72
2024/04/21 10:06:29;;;;;;;4.77;2.10;;;23.30;51.80;;;;;;5447832;26;20453;-73
2024/04/21 10:09:00;;;;;;;2.97;2.30;;;23.40;51.80;;;;;;5447110;26;21199;-72
2024/04/21 10:11:26;;;;;;;2.67;1.67;;;23.40;51.80;;;;;;5451571;26;20517;-72
2024/04/21 10:13:53;;;;;;;4.40;2.07;;;23.40;51.90;;;;;;5447737;26;21030;-70
2024/04/21 10:16:21;;;;;;;3.20;2.07;;;23.40;51.80;;;;;;5444668;26;20267;-70
2024/04/21 10:18:46;;;;;;;2.13;1.93;;;23.40;51.80;;;;;;5451125;26;20820;-70
2024/04/21 10:21:14;;;;;;;2.90;2.23;;;23.40;51.90;;;;;;5479864;26;20564;-72
2024/04/21 10:23:40;;;;;;;3.87;2.23;;;23.40;51.80;;;;;;5451088;26;20223;-69
2024/04/21 10:26:08;;;;;;;2.07;1.87;;;23.40;51.80;;;;;;5451159;26;20497;-68
2024/04/21 10:28:34;;;;;;;2.80;2.17;;;23.40;51.80;;;;;;5419444;26;20290;-71
2024/04/21 10:31:07;;;;;;;2.30;2.00;;;23.40;51.80;;;;;;5451906;26;20433;-69
2024/04/21 10:33:33;;;;;;;2.47;2.10;;;23.40;51.90;;;;;;5451333;26;20449;-70
2024/04/21 10:35:59;;;;;;;2.60;2.13;;;23.40;51.90;;;;;;5451070;26;20445;-69
2024/04/21 10:38:25;;;;;;;2.67;2.30;;;23.40;51.90;;;;;;5450859;26;21053;-70
2024/04/21 10:40:51;;;;;;;3.20;2.10;;;23.40;52.40;;;;;;5445245;26;20643;-72
2024/04/21 10:43:20;;;;;;;3.20;2.57;;;23.40;51.90;;;;;;5430373;26;20458;-70
2024/04/21 10:45:46;;;;;;;4.30;2.50;;;23.40;51.90;;;;;;5436072;26;20274;-69
2024/04/21 10:48:11;;;;;;;4.87;3.10;;;23.40;51.90;;;;;;5451103;26;20926;-69
2024/04/21 10:50:38;;;;;;;5.00;2.90;;;23.40;51.90;;;;;;5435328;26;20476;-69
2024/04/21 10:53:06;;;;;;;5.00;3.57;;;23.40;51.90;;;;;;5431590;26;20231;-69
2024/04/21 10:55:32;;;;;;;6.80;3.30;;;23.40;51.90;;;;;;5429379;26;20450;-68
2024/04/21 10:58:03;;;;;;;6.27;3.77;;;23.40;51.90;;;;;;5413421;26;20617;-70
2024/04/21 11:00:29;;;;;;;6.20;3.33;;;23.40;51.90;;;;;;5446150;26;20460;-70
2024/04/21 11:02:55;;;;;;;6.53;3.30;;;23.40;52.00;;;;;;5450753;26;20978;-69
2024/04/21 11:05:26;;;;;;;9.17;3.60;;;23.40;52.00;;;;;;5450730;26;20554;-69
2024/04/21 11:07:51;;;;;;;7.60;3.77;;;23.40;52.00;;;;;;5451101;26;20852;-70
2024/04/21 11:10:17;;;;;;;15.03;4.37;;;23.40;52.00;;;;;;5419014;26;20448;-69
2024/04/21 11:12:47;;;;;;;6.30;3.80;;;23.40;51.90;;;;;;5418889;26;20243;-71
2024/04/21 11:15:13;;;;;;;8.07;3.80;;;23.40;52.00;;;;;;5450959;26;20227;-71
2024/04/21 11:17:38;;;;;;;12.73;4.60;;;23.40;52.00;;;;;;5450572;26;20492;-70
2024/04/21 11:20:05;;;;;;;13.50;4.60;;;23.40;51.90;;;;;;5450677;26;20282;-70
2024/04/21 11:22:31;;;;;;;7.80;4.13;;;23.40;51.90;;;;;;5450600;26;20601;-72
2024/04/21 11:24:56;;;;;;;11.43;5.10;;;23.40;51.90;;;;;;5450694;26;20453;-71
2024/04/21 11:27:22;;;;;;;8.00;4.50;;;23.40;51.90;;;;;;5450450;26;20505;-69
2024/04/21 11:29:49;;;;;;;9.20;4.70;;;23.40;51.90;;;;;;5450492;26;20319;-70
2024/04/21 11:32:15;;;;;;;6.13;4.40;;;23.40;51.90;;;;;;5450529;26;20706;-70
2024/04/21 11:34:41;;;;;;;9.20;4.60;;;23.40;51.90;;;;;;5450330;26;20445;-71
2024/04/21 11:37:16;;;;;;;9.17;5.27;;;23.40;51.90;;;;;;5450352;26;20528;-71
2024/04/21 11:39:42;;;;;;;11.10;5.20;;;23.40;51.90;;;;;;5450506;26;20276;-70
2024/04/21 11:42:08;;;;;;;8.53;5.60;;;23.40;51.80;;;;;;5450406;26;20958;-71
2024/04/21 11:44:35;;;;;;;10.27;4.93;;;23.40;51.80;;;;;;5450311;26;20716;-71
2024/04/21 11:47:01;;;;;;;9.57;4.80;;;23.40;51.80;;;;;;5450520;26;20449;-70
2024/04/21 11:49:27;;;;;;;8.53;4.97;;;23.40;51.70;;;;;;5450034;26;20509;-70
2024/04/21 11:51:52;;;;;;;9.00;5.60;;;23.40;51.70;;;;;;5449967;26;20698;-71
2024/04/21 11:54:18;;;;;;;8.30;4.30;;;23.40;51.70;;;;;;5450188;26;20227;-70
2024/04/21 11:56:43;;;;;;;10.57;4.90;;;23.40;51.70;;;;;;5450074;26;20777;-70
2024/04/21 11:59:09;;;;;;;8.27;5.00;;;23.40;51.80;;;;;;5449992;26;20227;-72
2024/04/21 12:01:35;;;;;;;8.33;4.20;;;23.40;51.80;;;;;;5449984;26;20232;-71
2024/04/21 12:04:00;;;;;;;8.27;4.70;;;23.40;51.80;;;;;;5449663;26;20772;-71
2024/04/21 12:06:26;;;;;;;7.63;4.97;;;23.40;51.90;;;;;;5449995;26;20297;-70
2024/04/21 12:08:51;;;;;;;10.43;6.13;;;23.40;51.90;;;;;;5449542;26;20227;-71
2024/04/21 12:11:18;;;;;;;9.63;4.10;;;23.40;51.90;;;;;;5450083;26;20215;-71
2024/04/21 12:13:44;;;;;;;9.00;4.10;;;23.40;52.00;;;;;;5449958;26;20258;-71
2024/04/21 12:16:10;;;;;;;11.00;5.00;;;23.40;51.90;;;;;;5449980;26;20441;-72
2024/04/21 12:18:35;;;;;;;11.87;5.17;;;23.40;51.90;;;;;;5449769;26;20231;-71
2024/04/21 12:21:01;;;;;;;11.13;5.53;;;23.40;52.00;;;;;;5449412;26;20616;-71
2024/04/21 12:23:26;;;;;;;8.90;4.53;;;23.40;52.00;;;;;;5449863;26;20339;-71
2024/04/21 12:25:52;;;;;;;10.97;4.97;;;23.40;52.00;;;;;;5418097;26;20227;-71
2024/04/21 12:28:18;;;;;;;8.57;4.60;;;23.40;52.00;;;;;;5449883;26;20231;-71
2024/04/21 12:30:43;;;;;;;8.90;4.30;;;23.40;52.00;;;;;;5449673;26;20223;-70
2024/04/21 12:33:09;;;;;;;9.10;5.03;;;23.40;52.00;;;;;;5449684;26;20219;-70
2024/04/21 12:35:35;;;;;;;7.60;4.80;;;23.40;52.00;;;;;;5449323;26;20864;-69
2024/04/21 12:38:01;;;;;;;6.57;3.53;;;23.40;52.00;;;;;;5449262;26;20231;-71